Time;durP1;ratioP1;P1;durP2;ratioP2;P2;SDS_P1;SDS_P2;PMS_P1;PMS_P2;Temp;Humidity;BMP_temperature;BMP_pressure;BME280_temperature;BME280_humidity;BME280_pressure;Samples;Min_cycle;Max_cycle;Signal;HPM_P1;HPM_P2
2022/05/22 00:01:39;;;;;;;1.38;1.00;;;;;;;;;;5012657;28;20113;-50
2022/05/22 00:04:05;;;;;;;1.52;1.13;;;;;;;;;;5012388;28;20095;-51
2022/05/22 00:06:31;;;;;;;1.88;1.00;;;;;;;;;;5011941;28;20026;-49
2022/05/22 00:08:57;;;;;;;1.25;1.00;;;;;;;;;;5012741;28;20490;-52
2022/05/22 00:11:22;;;;;;;2.63;1.20;;;;;;;;;;5012572;28;20057;-52
2022/05/22 00:13:49;;;;;;;2.45;1.10;;;;;;;;;;5011666;28;20057;-49
2022/05/22 00:19:00;;;;;;;2.60;1.10;;;;;;;;;;5012477;28;20402;-53
2022/05/22 00:21:26;;;;;;;2.00;1.30;;;;;;;;;;5011547;28;20034;-50
2022/05/22 00:23:52;;;;;;;1.42;1.02;;;;;;;;;;5012245;28;20115;-52
2022/05/22 00:26:18;;;;;;;1.30;1.10;;;;;;;;;;5011912;28;20541;-48
2022/05/22 00:28:44;;;;;;;2.05;1.42;;;;;;;;;;5011573;28;20029;-52
2022/05/22 00:31:10;;;;;;;1.50;0.77;;;;;;;;;;5011945;28;20080;-48
2022/05/22 00:33:36;;;;;;;1.20;0.90;;;;;;;;;;5011284;28;20029;-51
2022/05/22 00:36:03;;;;;;;2.15;1.15;;;;;;;;;;5012086;28;20447;-49
2022/05/22 00:38:29;;;;;;;1.88;1.00;;;;;;;;;;5011161;28;20038;-51
2022/05/22 00:40:55;;;;;;;1.80;1.00;;;;;;;;;;5012081;28;20036;-50
2022/05/22 00:43:47;;;;;;;1.25;1.10;;;;;;;;;;5012074;28;20022;-51
2022/05/22 00:46:14;;;;;;;1.08;0.85;;;;;;;;;;5003003;28;20068;-50
2022/05/22 00:48:44;;;;;;;1.98;1.20;;;;;;;;;;5011241;28;20034;-52
2022/05/22 00:51:16;;;;;;;2.22;1.63;;;;;;;;;;5011896;28;20100;-49
2022/05/22 00:53:43;;;;;;;2.35;1.00;;;;;;;;;;5013609;28;20034;-52
2022/05/22 00:56:12;;;;;;;1.60;1.13;;;;;;;;;;5018343;28;20447;-52
2022/05/22 00:58:39;;;;;;;1.98;1.35;;;;;;;;;;5017738;28;20025;-52
2022/05/22 01:01:05;;;;;;;2.13;1.67;;;;;;;;;;5018396;28;20097;-49
2022/05/22 01:03:36;;;;;;;1.55;1.15;;;;;;;;;;5017409;28;20527;-48
2022/05/22 01:06:05;;;;;;;3.27;1.50;;;;;;;;;;5018378;28;20022;-50
2022/05/22 01:08:31;;;;;;;1.92;1.00;;;;;;;;;;5017485;28;20276;-52
2022/05/22 01:11:18;;;;;;;1.77;1.15;;;;;;;;;;5018199;28;20037;-50
2022/05/22 01:13:45;;;;;;;2.65;1.20;;;;;;;;;;5017437;28;20030;-50
2022/05/22 01:16:11;;;;;;;2.80;1.38;;;;;;;;;;5017797;28;20070;-48
2022/05/22 01:18:41;;;;;;;2.03;1.35;;;;;;;;;;5017327;28;20509;-48
2022/05/22 01:21:10;;;;;;;2.83;1.20;;;;;;;;;;5017780;28;20026;-52
2022/05/22 01:23:36;;;;;;;2.13;1.27;;;;;;;;;;5017422;28;20034;-51
2022/05/22 01:26:02;;;;;;;2.45;1.33;;;;;;;;;;5018189;28;20028;-48
2022/05/22 01:28:28;;;;;;;2.75;1.88;;;;;;;;;;5018204;28;20030;-52
2022/05/22 01:30:55;;;;;;;3.95;1.58;;;;;;;;;;5017672;28;20022;-51
2022/05/22 01:33:21;;;;;;;2.03;1.23;;;;;;;;;;5018141;28;20030;-53
2022/05/22 01:35:47;;;;;;;1.60;0.98;;;;;;;;;;5017249;28;20037;-49
2022/05/22 01:38:13;;;;;;;1.83;1.17;;;;;;;;;;5017871;28;20034;-50
2022/05/22 01:40:39;;;;;;;2.17;1.45;;;;;;;;;;5017266;28;20034;-47
2022/05/22 01:43:05;;;;;;;2.47;1.05;;;;;;;;;;5018058;28;20025;-49
2022/05/22 01:45:32;;;;;;;1.90;1.20;;;;;;;;;;5017465;28;20046;-52
2022/05/22 01:47:58;;;;;;;1.65;1.10;;;;;;;;;;5017946;28;20109;-48
2022/05/22 01:50:24;;;;;;;2.08;1.20;;;;;;;;;;5017578;28;20026;-51
2022/05/22 01:52:50;;;;;;;1.65;1.10;;;;;;;;;;5016795;28;20042;-48
2022/05/22 01:55:17;;;;;;;2.35;1.70;;;;;;;;;;5017019;28;20483;-51
2022/05/22 01:57:43;;;;;;;2.70;1.05;;;;;;;;;;5015581;28;20107;-49
2022/05/22 02:00:10;;;;;;;1.90;1.35;;;;;;;;;;5016415;28;20353;-49
2022/05/22 02:02:37;;;;;;;1.50;1.20;;;;;;;;;;5015509;28;20037;-49
2022/05/22 02:05:03;;;;;;;1.35;1.15;;;;;;;;;;5014659;28;20474;-50
2022/05/22 02:10:14;;;;;;;1.10;1.00;;;;;;;;;;5012375;28;20041;-49
2022/05/22 02:12:40;;;;;;;1.45;1.00;;;;;;;;;;5012505;28;20481;-49
2022/05/22 02:15:07;;;;;;;1.73;1.15;;;;;;;;;;5013017;28;20060;-51
2022/05/22 02:17:34;;;;;;;2.42;1.08;;;;;;;;;;5012717;28;20148;-53
2022/05/22 02:20:00;;;;;;;2.50;1.85;;;;;;;;;;5013161;28;20018;-49
2022/05/22 02:22:26;;;;;;;1.88;1.40;;;;;;;;;;5013055;28;20062;-51
2022/05/22 02:24:54;;;;;;;2.17;1.45;;;;;;;;;;5012140;28;20014;-49
2022/05/22 02:27:21;;;;;;;2.00;1.52;;;;;;;;;;5013024;28;20030;-49
2022/05/22 02:29:47;;;;;;;2.72;1.45;;;;;;;;;;5011893;28;20455;-48
2022/05/22 02:32:13;;;;;;;2.22;1.35;;;;;;;;;;5013117;28;20025;-54
2022/05/22 02:34:39;;;;;;;2.03;1.27;;;;;;;;;;5012005;28;20014;-49
2022/05/22 02:37:06;;;;;;;1.23;1.05;;;;;;;;;;5012754;28;20077;-54
2022/05/22 02:39:32;;;;;;;2.08;1.25;;;;;;;;;;5012181;28;20022;-51
2022/05/22 02:42:02;;;;;;;3.13;1.70;;;;;;;;;;5012624;28;20030;-52
2022/05/22 02:44:28;;;;;;;2.13;1.20;;;;;;;;;;5012303;28;20547;-53
2022/05/22 02:46:54;;;;;;;1.48;1.20;;;;;;;;;;5011574;28;20074;-50
2022/05/22 02:49:20;;;;;;;2.05;1.48;;;;;;;;;;5012669;28;20052;-49
2022/05/22 02:51:47;;;;;;;2.15;1.50;;;;;;;;;;5012227;28;20034;-53
2022/05/22 02:54:13;;;;;;;2.38;1.48;;;;;;;;;;5012215;28;20045;-53
2022/05/22 02:56:39;;;;;;;3.67;1.33;;;;;;;;;;5011464;28;20033;-53
2022/05/22 02:59:05;;;;;;;2.60;1.42;;;;;;;;;;5012527;28;20030;-51
2022/05/22 03:01:31;;;;;;;3.25;1.70;;;;;;;;;;5012111;28;20042;-52
2022/05/22 03:03:57;;;;;;;2.13;1.50;;;;;;;;;;5011711;28;20072;-51
2022/05/22 03:06:38;;;;;;;2.22;1.40;;;;;;;;;;5012461;28;20049;-52
2022/05/22 03:09:05;;;;;;;2.28;1.88;;;;;;;;;;5010823;28;20105;-51
2022/05/22 03:11:31;;;;;;;4.88;1.98;;;;;;;;;;5012039;28;20030;-49
2022/05/22 03:13:59;;;;;;;1.63;1.23;;;;;;;;;;5011700;28;20057;-53
2022/05/22 03:16:25;;;;;;;2.40;1.38;;;;;;;;;;5011481;28;20034;-50
2022/05/22 03:18:51;;;;;;;3.35;1.70;;;;;;;;;;5011031;28;20061;-51
2022/05/22 03:21:17;;;;;;;2.28;1.33;;;;;;;;;;5012373;28;20072;-49
2022/05/22 03:23:43;;;;;;;1.35;1.20;;;;;;;;;;5011198;28;20459;-48
2022/05/22 03:26:09;;;;;;;1.95;1.35;;;;;;;;;;5011871;28;20022;-49
2022/05/22 03:28:36;;;;;;;2.03;1.50;;;;;;;;;;5011303;28;20101;-48
2022/05/22 03:31:02;;;;;;;2.42;1.58;;;;;;;;;;5011696;28;20075;-52
2022/05/22 03:33:28;;;;;;;2.78;1.48;;;;;;;;;;5013020;28;20026;-52
2022/05/22 03:35:54;;;;;;;2.92;1.48;;;;;;;;;;5012203;28;20022;-50
2022/05/22 03:38:20;;;;;;;2.88;1.70;;;;;;;;;;5013089;28;20037;-48
2022/05/22 03:40:46;;;;;;;1.70;1.30;;;;;;;;;;5012132;28;20035;-50
2022/05/22 03:43:16;;;;;;;2.80;1.42;;;;;;;;;;5012488;28;20029;-48
2022/05/22 03:45:42;;;;;;;1.77;1.45;;;;;;;;;;5011731;28;20097;-50
2022/05/22 03:48:08;;;;;;;2.55;1.52;;;;;;;;;;5012660;28;20487;-49
2022/05/22 03:50:34;;;;;;;5.32;1.40;;;;;;;;;;5012220;28;20030;-53
2022/05/22 03:53:00;;;;;;;1.85;1.27;;;;;;;;;;5012713;28;20038;-48
2022/05/22 03:55:26;;;;;;;1.98;1.40;;;;;;;;;;5012441;28;20477;-49
2022/05/22 03:57:53;;;;;;;2.60;1.33;;;;;;;;;;5011702;28;20033;-51
2022/05/22 04:00:22;;;;;;;2.88;1.45;;;;;;;;;;5012731;28;20034;-49
2022/05/22 04:02:48;;;;;;;1.83;1.10;;;;;;;;;;5011819;28;20087;-53
2022/05/22 04:05:14;;;;;;;2.33;1.65;;;;;;;;;;5012123;28;20029;-49
2022/05/22 04:07:40;;;;;;;2.10;1.48;;;;;;;;;;5011681;28;20057;-51
2022/05/22 04:10:07;;;;;;;2.22;1.27;;;;;;;;;;5012235;28;20025;-51
2022/05/22 04:12:33;;;;;;;1.95;1.35;;;;;;;;;;5011850;28;20065;-52
2022/05/22 04:14:59;;;;;;;2.15;1.50;;;;;;;;;;5012280;28;20030;-48
2022/05/22 04:17:25;;;;;;;1.63;1.20;;;;;;;;;;5012495;28;20080;-50
2022/05/22 04:19:51;;;;;;;2.97;1.50;;;;;;;;;;5011445;28;20057;-51
2022/05/22 04:22:17;;;;;;;2.08;1.40;;;;;;;;;;5012191;28;20117;-52
2022/05/22 04:27:28;;;;;;;3.25;1.58;;;;;;;;;;5011824;28;20072;-49
2022/05/22 04:29:54;;;;;;;2.22;1.50;;;;;;;;;;5011010;28;20045;-49
2022/05/22 04:32:20;;;;;;;2.20;1.20;;;;;;;;;;5012026;28;20466;-53
2022/05/22 04:34:46;;;;;;;1.63;1.25;;;;;;;;;;4993714;28;20032;-52
2022/05/22 04:37:12;;;;;;;2.05;1.30;;;;;;;;;;5012378;28;20036;-50
2022/05/22 04:39:38;;;;;;;2.15;1.20;;;;;;;;;;5011228;28;20447;-58
2022/05/22 04:42:05;;;;;;;2.78;1.38;;;;;;;;;;5011665;28;20066;-59
2022/05/22 04:44:31;;;;;;;3.15;1.38;;;;;;;;;;5012043;28;20073;-60
2022/05/22 04:47:00;;;;;;;3.45;1.52;;;;;;;;;;5010666;28;20056;-56
2022/05/22 04:49:26;;;;;;;3.42;1.25;;;;;;;;;;5011836;28;20528;-57
2022/05/22 04:51:52;;;;;;;2.75;1.55;;;;;;;;;;5010798;28;20402;-56
2022/05/22 04:54:18;;;;;;;4.97;1.70;;;;;;;;;;5011799;28;20026;-58
2022/05/22 04:56:44;;;;;;;3.25;1.48;;;;;;;;;;5010649;28;20045;-59
2022/05/22 04:59:10;;;;;;;3.30;1.35;;;;;;;;;;5012025;28;20030;-59
2022/05/22 05:01:36;;;;;;;1.65;1.20;;;;;;;;;;5011551;28;20041;-60
2022/05/22 05:04:02;;;;;;;2.75;1.20;;;;;;;;;;5011535;28;20471;-58
2022/05/22 05:06:30;;;;;;;1.75;1.25;;;;;;;;;;5011519;28;20050;-52
2022/05/22 05:08:56;;;;;;;2.38;1.40;;;;;;;;;;5010906;28;20037;-51
2022/05/22 05:11:22;;;;;;;2.72;1.67;;;;;;;;;;5011573;28;20030;-54
2022/05/22 05:13:48;;;;;;;1.95;1.30;;;;;;;;;;5010840;28;20022;-57
2022/05/22 05:16:14;;;;;;;2.50;1.42;;;;;;;;;;5011784;28;20022;-53
2022/05/22 05:18:41;;;;;;;2.88;1.45;;;;;;;;;;5010474;28;20042;-49
2022/05/22 05:21:11;;;;;;;3.50;1.88;;;;;;;;;;5011150;28;20470;-50
2022/05/22 05:23:38;;;;;;;1.90;1.57;;;;;;;;;;5011335;28;20034;-48
2022/05/22 05:26:05;;;;;;;3.55;1.95;;;;;;;;;;5011041;28;20034;-48
2022/05/22 05:28:31;;;;;;;3.22;1.58;;;;;;;;;;5011296;28;20108;-46
2022/05/22 05:30:57;;;;;;;2.70;1.50;;;;;;;;;;5010632;28;20712;-44
2022/05/22 05:33:23;;;;;;;4.07;1.70;;;;;;;;;;5011171;28;20026;-47
2022/05/22 05:35:50;;;;;;;2.47;1.20;;;;;;;;;;5010275;28;20360;-47
2022/05/22 05:38:16;;;;;;;3.00;1.38;;;;;;;;;;5011620;28;20096;-48
2022/05/22 05:40:42;;;;;;;2.58;1.50;;;;;;;;;;5011498;28;20022;-48
2022/05/22 05:43:08;;;;;;;3.97;2.03;;;;;;;;;;5014988;28;20041;-52
2022/05/22 05:45:34;;;;;;;2.08;1.52;;;;;;;;;;5014583;28;20048;-46
2022/05/22 05:48:01;;;;;;;3.08;1.38;;;;;;;;;;5014442;28;20022;-48
2022/05/22 05:50:27;;;;;;;2.60;1.40;;;;;;;;;;5014562;28;20104;-42
2022/05/22 05:52:54;;;;;;;4.47;1.75;;;;;;;;;;5014141;28;20389;-45
2022/05/22 05:55:20;;;;;;;4.10;1.60;;;;;;;;;;4980250;28;20045;-45
2022/05/22 05:57:46;;;;;;;3.85;1.85;;;;;;;;;;5013982;28;20048;-47
2022/05/22 06:00:15;;;;;;;4.18;1.33;;;;;;;;;;5014542;28;20022;-45
2022/05/22 06:02:41;;;;;;;5.28;1.10;;;;;;;;;;5009175;28;20030;-46
2022/05/22 06:05:07;;;;;;;5.88;1.50;;;;;;;;;;5014901;28;20034;-47
2022/05/22 06:07:33;;;;;;;3.50;1.83;;;;;;;;;;5015489;28;20062;-47
2022/05/22 06:10:00;;;;;;;3.97;1.55;;;;;;;;;;5014278;28;20030;-42
2022/05/22 06:12:26;;;;;;;3.08;1.50;;;;;;;;;;5013844;28;20034;-45
2022/05/22 06:14:52;;;;;;;3.15;1.48;;;;;;;;;;5013094;28;20030;-46
2022/05/22 06:17:18;;;;;;;2.40;1.40;;;;;;;;;;5014281;28;20060;-46
2022/05/22 06:19:54;;;;;;;2.97;1.75;;;;;;;;;;5013475;28;20018;-45
2022/05/22 06:22:20;;;;;;;3.75;1.40;;;;;;;;;;5013827;28;20038;-45
2022/05/22 06:24:46;;;;;;;4.20;1.63;;;;;;;;;;5013101;28;20375;-44
2022/05/22 06:27:13;;;;;;;5.78;1.33;;;;;;;;;;5013854;28;20049;-45
2022/05/22 06:29:40;;;;;;;2.33;1.23;;;;;;;;;;5013612;28;20026;-47
2022/05/22 06:32:06;;;;;;;6.45;2.60;;;;;;;;;;5013858;28;20105;-48
2022/05/22 06:34:34;;;;;;;2.95;1.88;;;;;;;;;;5013692;28;20029;-44
2022/05/22 06:37:02;;;;;;;3.40;1.30;;;;;;;;;;5013181;28;20022;-44
2022/05/22 06:42:17;;;;;;;3.05;1.40;;;;;;;;;;5007281;28;20037;-43
2022/05/22 06:44:44;;;;;;;3.60;1.40;;;;;;;;;;5011371;28;20037;-44
2022/05/22 06:47:10;;;;;;;3.45;1.40;;;;;;;;;;5014476;28;20057;-46
2022/05/22 06:49:36;;;;;;;4.30;1.60;;;;;;;;;;4998571;28;20886;-45
2022/05/22 06:52:03;;;;;;;2.90;1.33;;;;;;;;;;5010858;28;20494;-47
2022/05/22 06:54:30;;;;;;;2.45;1.52;;;;;;;;;;5009388;28;20030;-47
2022/05/22 06:56:57;;;;;;;2.25;1.65;;;;;;;;;;5014171;28;20356;-39
2022/05/22 06:59:23;;;;;;;4.70;1.77;;;;;;;;;;5013071;28;20034;-40
2022/05/22 07:01:49;;;;;;;3.53;1.40;;;;;;;;;;5012592;28;20060;-46
2022/05/22 07:04:15;;;;;;;6.75;2.20;;;;;;;;;;5013049;28;20109;-44
2022/05/22 07:06:41;;;;;;;5.22;1.88;;;;;;;;;;5012737;28;20101;-47
2022/05/22 07:09:07;;;;;;;2.45;1.50;;;;;;;;;;5012187;28;20173;-50
2022/05/22 07:11:39;;;;;;;4.95;1.42;;;;;;;;;;5012405;28;20127;-45
2022/05/22 07:14:09;;;;;;;3.67;1.83;;;;;;;;;;5010953;28;20022;-47
2022/05/22 07:16:36;;;;;;;4.00;1.60;;;;;;;;;;5012578;28;20109;-41
2022/05/22 07:19:03;;;;;;;2.63;1.58;;;;;;;;;;5012146;28;20599;-44
2022/05/22 07:21:29;;;;;;;2.10;1.08;;;;;;;;;;5012413;28;20760;-45
2022/05/22 07:23:55;;;;;;;5.68;2.30;;;;;;;;;;5009831;28;20053;-46
2022/05/22 07:26:24;;;;;;;1.67;1.20;;;;;;;;;;5012773;28;20071;-45
2022/05/22 07:28:50;;;;;;;4.50;1.40;;;;;;;;;;5009237;28;20091;-45
2022/05/22 07:31:24;;;;;;;3.78;1.20;;;;;;;;;;5012882;28;20030;-45
2022/05/22 07:33:50;;;;;;;2.45;1.23;;;;;;;;;;5011737;28;20029;-45
2022/05/22 07:36:17;;;;;;;2.97;1.10;;;;;;;;;;5012637;28;20495;-45
2022/05/22 07:38:44;;;;;;;4.00;1.50;;;;;;;;;;5011861;28;20490;-46
2022/05/22 07:41:10;;;;;;;2.10;1.15;;;;;;;;;;5012087;28;20022;-46
2022/05/22 07:43:37;;;;;;;3.67;1.02;;;;;;;;;;5011549;28;20060;-45
2022/05/22 07:46:03;;;;;;;2.17;1.58;;;;;;;;;;5010445;28;20046;-46
2022/05/22 07:48:30;;;;;;;3.13;1.38;;;;;;;;;;5011489;28;20167;-47
2022/05/22 07:50:57;;;;;;;2.65;1.40;;;;;;;;;;5011347;28;20089;-46
2022/05/22 07:53:23;;;;;;;1.52;1.15;;;;;;;;;;5007195;28;20113;-47
2022/05/22 07:55:49;;;;;;;2.92;2.00;;;;;;;;;;5010768;28;20033;-46
2022/05/22 07:58:16;;;;;;;2.42;1.13;;;;;;;;;;5011532;28;20036;-46
2022/05/22 08:00:42;;;;;;;3.78;1.20;;;;;;;;;;5010865;28;20109;-47
2022/05/22 08:03:12;;;;;;;2.70;1.23;;;;;;;;;;5009725;28;20033;-46
2022/05/22 08:05:38;;;;;;;2.63;1.33;;;;;;;;;;5011407;28;20371;-50
2022/05/22 08:08:04;;;;;;;2.38;1.30;;;;;;;;;;5011100;28;20033;-50
2022/05/22 08:10:31;;;;;;;1.35;0.93;;;;;;;;;;5012053;28;20041;-45
2022/05/22 08:12:57;;;;;;;2.60;1.33;;;;;;;;;;5011646;28;20036;-46
2022/05/22 08:15:24;;;;;;;1.98;1.13;;;;;;;;;;5011874;28;20034;-46
2022/05/22 08:17:50;;;;;;;4.43;1.17;;;;;;;;;;5011032;28;20038;-45
2022/05/22 08:20:19;;;;;;;2.60;1.05;;;;;;;;;;5012020;28;20064;-44
2022/05/22 08:22:45;;;;;;;2.45;1.35;;;;;;;;;;5010864;28;20387;-46
2022/05/22 08:25:17;;;;;;;1.75;0.88;;;;;;;;;;5012137;28;20030;-47
2022/05/22 08:27:43;;;;;;;;;;;;;;;;;;5013906;28;20030;-50
2022/05/22 08:30:10;;;;;;;2.83;1.10;;;;;;;;;;5012318;28;19910;-46
2022/05/22 08:32:40;;;;;;;3.50;1.73;;;;;;;;;;5011789;28;20053;-42
2022/05/22 08:35:07;;;;;;;3.45;1.25;;;;;;;;;;5011101;28;20034;-46
2022/05/22 08:37:33;;;;;;;2.38;1.20;;;;;;;;;;5012086;28;20163;-51
2022/05/22 08:39:59;;;;;;;3.60;1.33;;;;;;;;;;5011042;28;20072;-44
2022/05/22 08:42:40;;;;;;;2.63;1.40;;;;;;;;;;5011882;28;20454;-44
2022/05/22 08:45:10;;;;;;;4.45;1.25;;;;;;;;;;5011240;28;20151;-50
2022/05/22 08:47:40;;;;;;;5.50;1.00;;;;;;;;;;5011728;28;20494;-49
2022/05/22 08:50:10;;;;;;;2.65;1.20;;;;;;;;;;5010930;28;20030;-50
2022/05/22 08:52:43;;;;;;;2.35;0.88;;;;;;;;;;5011999;28;20033;-46
2022/05/22 08:55:15;;;;;;;1.67;1.15;;;;;;;;;;5010977;28;20032;-46
2022/05/22 09:00:26;;;;;;;2.30;0.88;;;;;;;;;;5011377;28;20395;-44
2022/05/22 09:03:04;;;;;;;2.72;1.10;;;;;;;;;;5010587;28;20091;-47
2022/05/22 09:05:31;;;;;;;2.38;1.00;;;;;;;;;;5011096;28;20030;-47
2022/05/22 09:08:00;;;;;;;4.28;1.27;;;;;;;;;;5010583;28;20486;-46
2022/05/22 09:10:32;;;;;;;2.50;0.93;;;;;;;;;;5011633;28;20033;-44
2022/05/22 09:13:03;;;;;;;5.10;1.50;;;;;;;;;;5010592;28;20487;-48
2022/05/22 09:15:29;;;;;;;2.50;1.17;;;;;;;;;;5014012;28;20139;-50
2022/05/22 09:18:00;;;;;;;3.00;1.48;;;;;;;;;;5014328;28;20042;-46
2022/05/22 09:20:32;;;;;;;3.05;1.35;;;;;;;;;;5007319;28;20093;-44
2022/05/22 09:23:07;;;;;;;1.77;0.95;;;;;;;;;;5014239;28;20033;-51
2022/05/22 09:25:39;;;;;;;5.18;1.67;;;;;;;;;;5014926;28;20026;-47
2022/05/22 09:28:17;;;;;;;1.92;0.90;;;;;;;;;;5014624;28;20025;-48
2022/05/22 09:30:50;;;;;;;1.30;0.80;;;;;;;;;;5014907;28;20030;-47
2022/05/22 09:33:16;;;;;;;1.95;1.08;;;;;;;;;;5015166;28;20087;-43
2022/05/22 09:35:51;;;;;;;1.60;0.88;;;;;;;;;;5014822;28;20024;-47
2022/05/22 09:38:36;;;;;;;3.78;1.50;;;;;;;;;;5015069;28;20378;-45
2022/05/22 09:41:25;;;;;;;2.13;0.95;;;;;;;;;;5014042;28;20056;-45
2022/05/22 09:43:56;;;;;;;2.88;1.20;;;;;;;;;;4971039;28;20050;-45
2022/05/22 09:46:22;;;;;;;;;;;;;;;;;;5015340;28;20058;-47
2022/05/22 09:48:52;;;;;;;3.22;0.93;;;;;;;;;;5014171;28;19909;-46
2022/05/22 09:51:36;;;;;;;3.72;0.98;;;;;;;;;;5015195;28;20037;-46
2022/05/22 09:54:02;;;;;;;2.55;0.95;;;;;;;;;;5013494;28;20058;-49
2022/05/22 09:56:41;;;;;;;2.60;1.00;;;;;;;;;;5014825;28;20057;-46
2022/05/22 09:59:07;;;;;;;4.55;1.13;;;;;;;;;;5013865;28;20018;-42
2022/05/22 10:01:35;;;;;;;1.65;0.90;;;;;;;;;;5014322;28;20483;-50
2022/05/22 10:04:01;;;;;;;3.22;0.93;;;;;;;;;;5013466;28;20034;-47
2022/05/22 10:06:36;;;;;;;1.95;0.70;;;;;;;;;;5014308;28;20026;-49
2022/05/22 10:09:10;;;;;;;3.65;0.90;;;;;;;;;;5013668;28;20026;-47
2022/05/22 10:11:36;;;;;;;2.70;1.15;;;;;;;;;;5013943;28;20513;-49
2022/05/22 10:14:07;;;;;;;2.60;1.02;;;;;;;;;;5013928;28;20030;-47
2022/05/22 10:16:33;;;;;;;;;;;;;;;;;;5010317;28;20109;-50
2022/05/22 10:19:07;;;;;;;3.03;0.80;;;;;;;;;;5014944;28;20343;-48
2022/05/22 10:21:52;;;;;;;1.55;0.90;;;;;;;;;;5015866;28;20037;-46
2022/05/22 10:24:41;;;;;;;2.45;1.10;;;;;;;;;;5013963;28;20058;-49
2022/05/22 10:27:22;;;;;;;1.95;1.25;;;;;;;;;;5012636;28;20018;-48
2022/05/22 10:30:00;;;;;;;3.38;1.40;;;;;;;;;;5006753;28;20036;-50
2022/05/22 10:32:32;;;;;;;1.67;0.82;;;;;;;;;;5014424;28;20066;-49
2022/05/22 10:35:04;;;;;;;1.27;0.98;;;;;;;;;;5006086;28;20026;-47
2022/05/22 10:37:36;;;;;;;3.25;0.95;;;;;;;;;;5014349;28;20053;-51
2022/05/22 10:40:04;;;;;;;1.90;0.90;;;;;;;;;;5013425;28;20041;-49
2022/05/22 10:42:45;;;;;;;2.05;0.80;;;;;;;;;;5013537;28;20034;-49
2022/05/22 10:45:17;;;;;;;1.65;0.90;;;;;;;;;;5012672;28;20574;-48
2022/05/22 10:47:43;;;;;;;4.15;1.35;;;;;;;;;;5013419;28;20033;-49
2022/05/22 10:50:23;;;;;;;1.77;0.88;;;;;;;;;;5013138;28;20021;-50
2022/05/22 10:52:49;;;;;;;4.32;1.00;;;;;;;;;;5013269;28;20398;-50
2022/05/22 10:55:33;;;;;;;4.18;1.00;;;;;;;;;;5012634;28;20030;-48
2022/05/22 10:58:00;;;;;;;3.95;1.00;;;;;;;;;;5012206;28;20108;-48
2022/05/22 11:00:27;;;;;;;1.85;0.85;;;;;;;;;;5013293;28;20033;-48
2022/05/22 11:02:53;;;;;;;1.80;0.80;;;;;;;;;;5012412;28;20037;-46
2022/05/22 11:05:26;;;;;;;3.00;1.08;;;;;;;;;;5012870;28;20022;-47
2022/05/22 11:07:53;;;;;;;3.78;1.10;;;;;;;;;;5005108;28;20390;-47
2022/05/22 11:10:29;;;;;;;1.60;0.88;;;;;;;;;;5013119;28;20030;-49
2022/05/22 11:13:18;;;;;;;3.30;0.95;;;;;;;;;;5012490;28;20136;-49
2022/05/22 11:15:44;;;;;;;1.65;1.00;;;;;;;;;;5012285;28;20387;-48
2022/05/22 11:18:11;;;;;;;3.00;0.98;;;;;;;;;;5012497;28;20036;-48
2022/05/22 11:20:50;;;;;;;3.38;1.00;;;;;;;;;;5012206;28;20486;-47
2022/05/22 11:23:26;;;;;;;1.05;0.60;;;;;;;;;;5009723;28;20046;-50
2022/05/22 11:26:05;;;;;;;3.10;0.90;;;;;;;;;;5010636;28;20152;-47
2022/05/22 11:28:54;;;;;;;2.15;0.70;;;;;;;;;;5012033;28;20149;-50
2022/05/22 11:31:31;;;;;;;1.73;1.23;;;;;;;;;;4998186;28;20534;-47
2022/05/22 11:34:18;;;;;;;3.10;1.00;;;;;;;;;;5012071;28;20026;-51
2022/05/22 11:36:50;;;;;;;2.40;0.90;;;;;;;;;;5006317;28;20548;-51
2022/05/22 11:39:34;;;;;;;2.30;1.00;;;;;;;;;;5011064;28;20053;-49
2022/05/22 11:42:10;;;;;;;3.53;1.10;;;;;;;;;;5011868;28;20037;-48
2022/05/22 11:44:42;;;;;;;2.05;1.15;;;;;;;;;;5012706;28;20117;-47
2022/05/22 11:47:15;;;;;;;1.70;1.02;;;;;;;;;;5011229;28;20057;-51
2022/05/22 11:49:50;;;;;;;2.35;1.20;;;;;;;;;;5012573;28;20374;-47
2022/05/22 11:55:19;;;;;;;1.77;1.00;;;;;;;;;;5008524;28;20091;-47
2022/05/22 11:57:48;;;;;;;1.77;0.93;;;;;;;;;;5012965;28;20057;-47
2022/05/22 12:00:19;;;;;;;1.55;0.90;;;;;;;;;;5011801;28;20033;-47
2022/05/22 12:02:51;;;;;;;5.03;1.23;;;;;;;;;;5012229;28;20126;-47
2022/05/22 12:05:24;;;;;;;1.55;0.80;;;;;;;;;;5012000;28;20041;-47
2022/05/22 12:07:50;;;;;;;2.15;0.70;;;;;;;;;;5009517;28;20487;-49
2022/05/22 12:10:19;;;;;;;1.38;0.93;;;;;;;;;;5008342;28;20161;-46
2022/05/22 12:12:48;;;;;;;2.17;0.82;;;;;;;;;;5012298;28;20065;-47
2022/05/22 12:15:25;;;;;;;1.80;1.00;;;;;;;;;;5005270;28;20029;-47
2022/05/22 12:18:10;;;;;;;1.67;0.90;;;;;;;;;;5008276;28;20491;-49
2022/05/22 12:20:43;;;;;;;2.67;0.77;;;;;;;;;;5012261;28;20404;-47
2022/05/22 12:23:27;;;;;;;1.33;0.73;;;;;;;;;;5005841;28;20065;-46
2022/05/22 12:25:59;;;;;;;2.35;1.15;;;;;;;;;;5012001;28;20352;-46
2022/05/22 12:28:41;;;;;;;1.77;1.23;;;;;;;;;;5010171;28;20026;-47
2022/05/22 12:31:09;;;;;;;1.88;1.00;;;;;;;;;;5005060;28;20111;-47
2022/05/22 12:33:38;;;;;;;2.67;1.35;;;;;;;;;;5011238;28;20100;-47
2022/05/22 12:36:04;;;;;;;1.40;1.10;;;;;;;;;;5011059;28;20050;-49
2022/05/22 12:38:30;;;;;;;1.23;0.82;;;;;;;;;;5011510;28;20037;-51
2022/05/22 12:41:22;;;;;;;1.95;0.93;;;;;;;;;;5011533;28;20053;-49
2022/05/22 12:43:50;;;;;;;2.28;0.95;;;;;;;;;;5003163;28;20041;-48
2022/05/22 12:46:18;;;;;;;5.20;1.30;;;;;;;;;;5010513;28;20049;-49
2022/05/22 12:48:44;;;;;;;1.67;0.90;;;;;;;;;;5011763;28;20440;-47
2022/05/22 12:51:19;;;;;;;2.28;0.93;;;;;;;;;;5010775;28;20034;-49
2022/05/22 12:53:47;;;;;;;2.55;0.98;;;;;;;;;;5011521;28;20030;-46
2022/05/22 12:56:24;;;;;;;2.15;1.20;;;;;;;;;;5010901;28;20100;-51
2022/05/22 12:58:54;;;;;;;0.88;0.70;;;;;;;;;;5011668;28;20030;-52
2022/05/22 13:01:26;;;;;;;2.40;0.85;;;;;;;;;;5010823;28;20029;-49
2022/05/22 13:03:53;;;;;;;0.85;0.70;;;;;;;;;;5011403;28;20498;-51
2022/05/22 13:06:21;;;;;;;3.67;1.00;;;;;;;;;;5010541;28;20030;-49
2022/05/22 13:09:06;;;;;;;1.88;0.80;;;;;;;;;;5010968;28;20026;-49
2022/05/22 13:11:46;;;;;;;1.40;1.02;;;;;;;;;;5011267;28;20057;-51
2022/05/22 13:14:27;;;;;;;1.60;0.80;;;;;;;;;;5010469;28;20030;-50
2022/05/22 13:16:53;;;;;;;2.33;0.93;;;;;;;;;;5011204;28;20030;-50
2022/05/22 13:19:30;;;;;;;2.47;0.98;;;;;;;;;;5010500;28;20046;-47
2022/05/22 13:21:56;;;;;;;2.33;0.65;;;;;;;;;;5002835;28;20042;-48
2022/05/22 13:24:25;;;;;;;3.60;0.95;;;;;;;;;;5010885;28;20115;-50
2022/05/22 13:27:00;;;;;;;4.68;0.93;;;;;;;;;;5011245;28;20025;-47
2022/05/22 13:29:29;;;;;;;2.45;0.88;;;;;;;;;;5011518;28;20029;-51
2022/05/22 13:31:57;;;;;;;3.47;1.13;;;;;;;;;;5009009;28;20037;-49
2022/05/22 13:34:31;;;;;;;2.58;0.90;;;;;;;;;;5008529;28;20026;-48
2022/05/22 13:36:59;;;;;;;2.10;1.48;;;;;;;;;;5008538;28;20022;-48
2022/05/22 13:39:43;;;;;;;3.17;1.05;;;;;;;;;;5008563;28;20402;-48
2022/05/22 13:42:09;;;;;;;1.88;1.17;;;;;;;;;;5008175;28;20037;-49
2022/05/22 13:44:41;;;;;;;2.67;1.30;;;;;;;;;;5009131;28;20494;-49
2022/05/22 13:47:16;;;;;;;0.93;0.80;;;;;;;;;;5007766;28;20050;-49
2022/05/22 13:49:51;;;;;;;2.30;0.73;;;;;;;;;;5008577;28;20026;-48
2022/05/22 13:52:35;;;;;;;1.05;0.90;;;;;;;;;;5007784;28;20041;-49
2022/05/22 13:55:13;;;;;;;3.10;0.82;;;;;;;;;;5007961;28;20029;-47
2022/05/22 13:57:52;;;;;;;1.83;1.15;;;;;;;;;;5008223;28;20113;-50
2022/05/22 14:00:21;;;;;;;2.47;1.10;;;;;;;;;;5008372;28;20703;-48
2022/05/22 14:02:53;;;;;;;1.60;1.02;;;;;;;;;;5011641;28;20041;-51
2022/05/22 14:05:20;;;;;;;2.13;0.90;;;;;;;;;;5011425;28;20022;-52
2022/05/22 14:07:51;;;;;;;3.35;0.93;;;;;;;;;;5012295;28;20479;-49
2022/05/22 14:10:28;;;;;;;1.88;0.90;;;;;;;;;;5011041;28;20057;-50
2022/05/22 14:12:53;;;;;;;3.00;0.88;;;;;;;;;;5012253;28;20041;-51
2022/05/22 14:15:21;;;;;;;1.10;0.80;;;;;;;;;;5011303;28;20110;-52
2022/05/22 14:17:51;;;;;;;4.47;1.70;;;;;;;;;;5012089;28;20084;-50
2022/05/22 14:20:19;;;;;;;3.75;2.80;;;;;;;;;;5011149;28;20038;-49
2022/05/22 14:22:49;;;;;;;4.75;3.15;;;;;;;;;;5011730;28;20092;-50
2022/05/22 14:25:19;;;;;;;4.73;3.63;;;;;;;;;;5010774;28;20057;-49
2022/05/22 14:27:49;;;;;;;4.22;2.60;;;;;;;;;;5013984;28;20607;-48
2022/05/22 14:30:22;;;;;;;5.03;3.20;;;;;;;;;;5013504;28;20132;-48
2022/05/22 14:32:50;;;;;;;4.90;3.25;;;;;;;;;;5014060;28;20044;-49
2022/05/22 14:35:21;;;;;;;4.65;3.17;;;;;;;;;;5013277;28;20026;-49
2022/05/22 14:37:48;;;;;;;4.80;2.95;;;;;;;;;;5013689;28;20505;-49
2022/05/22 14:40:18;;;;;;;6.03;3.75;;;;;;;;;;5012851;28;20049;-49
2022/05/22 14:42:47;;;;;;;4.55;2.70;;;;;;;;;;5014168;28;20076;-47
2022/05/22 14:45:18;;;;;;;7.80;3.38;;;;;;;;;;5012507;28;20499;-47
2022/05/22 14:47:46;;;;;;;5.07;2.22;;;;;;;;;;5013624;28;20030;-51
2022/05/22 14:50:15;;;;;;;4.18;2.50;;;;;;;;;;5012599;28;20018;-50
2022/05/22 14:52:43;;;;;;;5.38;2.00;;;;;;;;;;5013614;28;20095;-52
2022/05/22 14:55:14;;;;;;;4.00;2.15;;;;;;;;;;5012745;28;20093;-50
2022/05/22 14:57:45;;;;;;;3.05;2.22;;;;;;;;;;5013676;28;20025;-49
2022/05/22 15:00:18;;;;;;;2.70;1.77;;;;;;;;;;5012879;28;20026;-52
2022/05/22 15:02:50;;;;;;;2.63;1.90;;;;;;;;;;5013753;28;20025;-47
2022/05/22 15:05:21;;;;;;;4.10;1.75;;;;;;;;;;5012871;28;20030;-49
2022/05/22 15:07:57;;;;;;;3.58;1.95;;;;;;;;;;5005868;28;20030;-47
2022/05/22 15:10:34;;;;;;;7.38;1.70;;;;;;;;;;5012579;28;20030;-49
2022/05/22 15:13:01;;;;;;;2.95;1.60;;;;;;;;;;5013169;28;20030;-49